.
WxDataArchive / Data Records for 2016-05-10
2016-05-09 May 2016 2016-05-11

Data Records for Tuesday, 10 May 2016

Time	Temp	Chill	HIndex	Humid	Dewpt	 Wind 	HiWind	WindDir	Rain 	Barom
-----	----	-----	------	-----	-----	------	------	-------	-----	-----
00:00	48.9	48.9	48.9	95	47.5	1	4	90	0.01	30.021 
00:05	49.1	49.1	49.1	95	47.7	1	3	90	0.00	30.021 
00:10	49.1	49.1	49.1	95	47.7	2	4	68	0.01	30.021 
00:15	49.1	49.1	49.1	95	47.7	2	4	90	0.00	30.020 
00:20	49.1	49.1	49.1	95	47.7	2	5	68	0.01	30.020 
00:25	49.1	49.1	49.1	95	47.7	2	5	112	0.01	30.020 
00:30	49.1	49.1	49.1	95	47.7	2	5	68	0.00	30.020 
00:35	49.1	49.1	49.1	95	47.7	2	5	112	0.01	30.020 
00:40	49.1	49.1	49.1	95	47.7	2	4	112	0.00	30.020 
00:45	49.1	49.1	49.1	95	47.7	3	6	112	0.00	30.020 
00:50	49.1	49.1	49.1	96	48.0	3	6	68	0.00	30.020 
00:55	49.1	49.1	49.1	95	47.7	2	5	112	0.01	30.020 
01:00	49.1	49.1	49.1	95	47.7	2	5	90	0.00	30.019 
01:05	49.1	49.1	49.1	96	48.0	2	6	90	0.00	30.019 
01:10	49.1	49.1	49.1	96	48.0	2	4	68	0.00	30.019 
01:15	49.1	49.1	49.1	96	48.0	2	7	90	0.00	30.015 
01:20	49.1	49.1	49.1	96	48.0	3	5	90	0.00	30.015 
01:25	49.1	49.1	49.1	96	48.0	3	5	112	0.00	30.015 
01:30	49.1	49.1	49.1	96	48.0	2	6	90	0.00	30.005 
01:35	48.9	48.9	48.9	96	47.8	3	5	112	0.00	30.005 
01:40	48.9	48.9	48.9	96	47.8	2	5	68	0.00	30.005 
01:45	49.1	49.1	49.1	96	48.0	2	4	90	0.00	30.018 
01:50	49.1	49.1	49.1	96	48.0	2	6	90	0.00	30.018 
01:55	49.1	49.1	49.1	96	48.0	2	5	68	0.00	30.018 
02:00	49.1	49.1	49.1	96	48.0	1	4	68	0.00	30.017 
02:05	49.1	49.1	49.1	96	48.0	2	5	68	0.00	30.017 
02:10	49.1	49.1	49.1	96	48.0	2	5	112	0.00	30.017 
02:15	49.1	49.1	49.1	96	48.0	2	5	90	0.00	30.011 
02:20	49.1	49.1	49.1	96	48.0	3	6	90	0.00	30.011 
02:25	49.1	49.1	49.1	96	48.0	2	4	90	0.00	30.011 
02:30	49.1	49.1	49.1	96	48.0	2	5	90	0.00	30.014 
02:35	49.1	49.1	49.1	96	48.0	2	5	112	0.00	30.014 
02:40	49.1	49.1	49.1	96	48.0	1	3	112	0.00	30.014 
02:45	49.1	49.1	49.1	96	48.0	2	5	112	0.00	30.011 
02:50	49.1	49.1	49.1	96	48.0	2	5	112	0.00	30.011 
02:55	49.1	49.1	49.1	96	48.0	2	5	90	0.00	30.011 
03:00	49.1	49.1	49.1	96	48.0	2	4	90	0.00	30.003 
03:05	49.1	49.1	49.1	96	48.0	2	6	68	0.00	30.003 
03:10	49.1	49.1	49.1	96	48.0	2	4	68	0.00	30.003 
03:15	49.1	49.1	49.1	96	48.0	1	6	68	0.00	30.003 
03:20	49.1	49.1	49.1	96	48.0	1	4	68	0.00	30.003 
03:25	49.2	49.2	49.2	96	48.1	1	4	68	0.00	30.003 
03:30	49.2	49.2	49.2	96	48.1	2	4	68	0.00	29.998 
03:35	49.1	49.1	49.1	96	48.0	1	4	68	0.00	29.998 
03:40	49.1	49.1	49.1	96	48.0	1	4	135	0.00	29.998 
03:45	49.2	49.2	49.2	96	48.1	1	5	90	0.00	30.004 
03:50	49.2	49.2	49.2	96	48.1	2	5	112	0.00	30.004 
03:55	49.2	49.2	49.2	96	48.1	2	5	112	0.00	30.004 
04:00	49.2	49.2	49.2	96	48.1	2	6	68	0.00	30.003 
04:05	49.2	49.2	49.2	96	48.1	2	4	90	0.00	30.003 
04:10	49.2	49.2	49.2	96	48.1	1	4	90	0.00	30.003 
04:15	49.2	49.2	49.2	96	48.1	2	4	90	0.00	30.005 
04:20	49.2	49.2	49.2	96	48.1	1	7	112	0.00	30.005 
04:25	49.2	49.2	49.2	96	48.1	1	3	90	0.00	30.005 
04:30	49.2	49.2	49.2	96	48.1	2	4	90	0.00	30.003 
04:35	49.2	49.2	49.2	96	48.1	2	7	90	0.00	30.003 
04:40	49.2	49.2	49.2	96	48.1	3	7	90	0.00	30.003 
04:45	49.2	49.2	49.2	96	48.1	3	5	90	0.00	29.996 
04:50	49.2	49.2	49.2	96	48.1	2	5	90	0.00	29.996 
04:55	49.2	49.2	49.2	96	48.1	2	6	90	0.00	29.996 
05:00	49.2	49.2	49.2	96	48.1	2	4	112	0.00	30.000 
05:05	49.2	49.2	49.2	96	48.1	1	3	112	0.00	30.000 
05:10	49.2	49.2	49.2	96	48.1	2	4	90	0.00	30.000 
05:15	49.2	49.2	49.2	96	48.1	2	4	68	0.00	29.998 
05:20	49.2	49.2	49.2	96	48.1	2	5	68	0.00	29.998 
05:25	49.2	49.2	49.2	96	48.1	2	4	68	0.00	29.998 
05:30	49.2	49.2	49.2	96	48.1	2	5	90	0.00	29.995 
05:35	49.2	49.2	49.2	96	48.1	2	5	68	0.00	29.995 
05:40	49.2	49.2	49.2	96	48.1	1	4	68	0.00	29.995 
05:45	49.2	49.2	49.2	96	48.1	2	10	90	0.00	29.993 
05:50	49.2	49.2	49.2	96	48.1	2	6	90	0.00	29.993 
05:55	49.2	49.2	49.2	96	48.1	2	5	90	0.00	29.993 
06:00	49.2	49.2	49.2	96	48.1	2	6	90	0.00	29.988 
06:05	49.2	49.2	49.2	96	48.1	2	5	90	0.00	29.988 
06:10	49.2	49.2	49.2	96	48.1	3	7	90	0.00	29.988 
06:15	49.2	49.2	49.2	96	48.1	3	7	90	0.00	29.980 
06:20	49.2	49.2	49.2	96	48.1	3	7	90	0.00	29.980 
06:25	49.2	49.2	49.2	96	48.1	3	6	112	0.00	29.980 
06:30	49.2	49.2	49.2	96	48.1	3	6	112	0.00	29.989 
06:35	49.4	49.4	49.4	96	48.3	2	5	90	0.00	29.989 
06:40	49.4	49.4	49.4	96	48.3	3	6	90	0.00	29.989 
06:45	49.4	49.4	49.4	96	48.3	3	5	90	0.00	29.991 
06:50	49.4	49.4	49.4	95	48.0	2	5	90	0.00	29.991 
06:55	49.5	49.5	49.5	96	48.4	3	7	90	0.00	29.991 
07:00	49.5	49.5	49.5	95	48.1	2	6	112	0.00	29.993 
07:05	49.6	49.6	49.6	95	48.2	2	4	90	0.00	29.993 
07:10	49.6	49.6	49.6	95	48.2	2	6	90	0.00	29.993 
07:15	49.8	49.8	49.8	95	48.4	3	7	90	0.00	29.995 
07:20	49.8	49.8	49.8	95	48.4	2	5	90	0.00	29.995 
07:25	49.9	49.9	49.9	95	48.5	3	5	90	0.00	29.995 
07:30	50.1	50.1	50.1	95	48.7	3	7	90	0.00	29.991 
07:35	50.1	50.1	50.1	95	48.7	2	6	90	0.00	29.991 
07:40	50.2	50.2	50.2	95	48.8	3	7	90	0.00	29.991 
07:45	50.4	50.4	50.4	95	49.0	3	9	90	0.00	29.990 
07:50	50.4	50.4	50.4	95	49.0	3	7	68	0.00	29.990 
07:55	50.4	50.4	50.4	95	49.0	3	6	90	0.00	29.990 
08:00	50.5	50.5	50.5	95	49.1	3	9	112	0.00	29.992 
08:05	50.5	50.5	50.5	95	49.1	3	12	112	0.00	29.992 
08:10	50.5	50.5	50.5	95	49.1	3	9	90	0.00	29.992 
08:15	50.7	50.7	50.7	95	49.3	3	7	90	0.01	29.989 
08:20	50.7	50.7	50.7	95	49.3	3	6	112	0.00	29.989 
08:25	50.8	50.8	50.8	95	49.4	3	7	112	0.00	29.989 
08:30	51.0	51.0	51.0	95	49.6	1	4	112	0.00	29.992 
08:35	51.0	51.0	51.0	95	49.6	1	5	90	0.00	29.992 
08:40	51.1	51.1	51.1	95	49.7	3	6	90	0.01	29.992 
08:45	51.3	51.3	51.3	95	49.9	2	5	90	0.00	29.987 
08:50	51.4	51.4	51.4	95	50.0	3	7	90	0.00	29.987 
08:55	51.4	51.4	51.4	95	50.0	4	8	90	0.00	29.987 
09:00	51.4	51.4	51.4	95	50.0	3	6	90	0.00	29.987 
09:05	51.4	51.4	51.4	95	50.0	3	7	90	0.00	29.987 
09:10	51.4	51.4	51.4	95	50.0	3	6	90	0.00	29.987 
09:15	51.6	51.6	51.6	95	50.2	2	6	90	0.00	29.989 
09:20	51.6	51.6	51.6	95	50.2	1	4	90	0.00	29.989 
09:25	51.6	51.6	51.6	95	50.2	1	5	90	0.00	29.989 
09:30	51.6	51.6	51.6	95	50.2	2	5	68	0.00	29.989 
09:35	51.7	51.7	51.7	95	50.3	1	4	90	0.00	29.989 
09:40	51.9	51.9	51.9	95	50.5	2	7	90	0.00	29.989 
09:45	52.0	52.0	52.0	95	50.6	1	5	112	0.00	29.991 
09:50	52.2	52.2	52.2	95	50.8	2	5	90	0.00	29.991 
09:55	52.3	52.3	52.3	95	50.9	2	4	90	0.00	29.991 
10:00	52.5	52.5	52.5	95	51.1	1	5	90	0.00	29.982 
10:05	52.6	52.6	52.6	95	51.2	2	5	90	0.00	29.982 
10:10	52.8	52.8	52.8	95	51.4	2	5	90	0.00	29.982 
10:15	52.9	52.9	52.9	95	51.5	2	5	90	0.00	29.978 
10:20	53.1	53.1	53.1	94	51.4	2	6	68	0.00	29.978 
10:25	53.2	53.2	53.2	94	51.5	2	4	68	0.00	29.978 
10:30	53.3	53.3	53.3	94	51.6	2	4	90	0.00	29.973 
10:35	53.5	53.5	53.5	94	51.8	1	3	112	0.00	29.973 
10:40	53.6	53.6	53.6	94	51.9	2	5	112	0.00	29.973 
10:45	53.8	53.8	53.8	94	52.1	2	5	112	0.00	29.972 
10:50	53.8	53.8	53.8	94	52.1	2	5	90	0.00	29.972 
10:55	53.9	53.9	53.9	94	52.2	3	7	90	0.00	29.972 
11:00	53.9	53.9	53.9	94	52.2	3	9	90	0.00	29.972 
11:05	53.9	53.9	53.9	93	51.9	3	6	90	0.00	29.972 
11:10	54.1	54.1	54.1	93	52.1	3	6	90	0.00	29.972 
11:15	54.2	54.2	54.2	93	52.2	2	6	90	0.00	29.971 
11:20	54.5	54.5	54.5	93	52.5	3	4	90	0.00	29.971 
11:25	54.8	54.8	54.8	93	52.8	3	7	90	0.00	29.971 
11:30	55.1	55.1	55.1	93	53.1	2	6	90	0.00	29.970 
11:35	55.1	55.1	55.1	93	53.1	3	6	90	0.00	29.970 
11:40	55.4	55.4	55.4	92	53.1	3	6	90	0.00	29.970 
11:45	55.7	55.7	55.7	92	53.4	2	5	90	0.00	29.968 
11:50	56.0	56.0	56.0	92	53.7	3	9	90	0.00	29.968 
11:55	56.3	56.3	56.3	92	54.0	3	5	90	0.00	29.968 
12:00	56.6	56.6	56.6	92	54.3	2	7	90	0.00	29.964 
12:05	56.7	56.7	56.7	92	54.4	3	7	90	0.00	29.964 
12:10	57.0	57.0	57.0	91	54.4	3	6	90	0.00	29.964 
12:15	57.3	57.3	57.3	91	54.7	3	7	90	0.00	29.959 
12:20	57.5	57.5	57.5	91	54.9	3	9	90	0.00	29.959 
12:25	58.0	58.0	58.0	91	55.4	2	5	90	0.00	29.959 
12:30	58.1	58.1	58.1	91	55.5	3	5	90	0.00	29.955 
12:35	58.4	58.4	58.4	91	55.8	3	6	90	0.00	29.955 
12:40	58.4	58.4	58.4	91	55.8	3	9	90	0.00	29.955 
12:45	58.7	58.7	58.7	91	56.1	2	7	90	0.00	29.951 
12:50	58.9	58.9	58.9	90	56.0	3	6	112	0.00	29.951 
12:55	59.0	59.0	59.0	90	56.1	4	10	90	0.00	29.951 
13:00	59.2	59.2	59.2	90	56.3	3	8	90	0.00	29.950 
13:05	59.2	59.2	59.2	89	56.0	3	6	90	0.00	29.950 
13:10	59.0	59.0	59.0	89	55.8	3	7	90	0.00	29.950 
13:15	59.0	59.0	59.0	90	56.1	3	7	90	0.01	29.946 
13:20	59.0	59.0	59.0	91	56.4	2	6	68	0.00	29.946 
13:25	58.9	58.9	58.9	91	56.3	1	4	68	0.00	29.946 
13:30	58.9	58.9	58.9	91	56.3	2	5	90	0.00	29.939 
13:35	58.7	58.7	58.7	92	56.4	2	6	112	0.01	29.939 
13:40	58.7	58.7	58.7	92	56.4	2	6	90	0.00	29.939 
13:45	58.7	58.7	58.7	92	56.4	2	5	90	0.01	29.940 
13:50	58.7	58.7	58.7	92	56.4	2	4	90	0.02	29.940 
13:55	58.6	58.6	58.6	93	56.6	2	4	90	0.02	29.940 
14:00	58.6	58.6	58.6	93	56.6	2	6	90	0.01	29.937 
14:05	58.6	58.6	58.6	93	56.6	1	4	90	0.01	29.937 
14:10	58.7	58.7	58.7	94	57.0	2	4	90	0.00	29.937 
14:15	58.7	58.7	58.7	94	57.0	2	4	90	0.00	29.935 
14:20	58.7	58.7	58.7	94	57.0	1	5	112	0.00	29.935 
14:25	58.7	58.7	58.7	94	57.0	1	4	112	0.00	29.935 
14:30	58.7	58.7	58.7	94	57.0	1	4	112	0.01	29.933 
14:35	58.9	58.9	58.9	94	57.2	1	4	90	0.00	29.933 
14:40	59.0	59.0	59.0	95	57.6	0	2	90	0.00	29.933 
14:45	59.0	59.0	59.0	95	57.6	0	2	90	0.00	29.938 
14:50	59.2	59.2	59.2	95	57.8	1	3	90	0.00	29.938 
14:55	59.3	59.3	59.3	95	57.9	3	5	90	0.00	29.938 
15:00	59.6	59.6	59.6	95	58.2	2	4	90	0.00	29.933 
15:05	59.6	59.6	59.6	95	58.2	0	1	90	0.00	29.933 
15:10	59.8	59.8	59.8	95	58.4	1	4	90	0.00	29.933 
15:15	60.1	60.1	60.1	95	58.7	3	7	90	0.00	29.935 
15:20	60.5	60.5	60.5	95	59.1	3	5	112	0.00	29.935 
15:25	60.9	60.9	60.9	95	59.5	2	6	112	0.00	29.935 
15:30	61.2	61.2	61.2	95	59.8	2	5	68	0.00	29.929 
15:35	61.5	61.5	61.5	95	60.1	1	4	68	0.00	29.929 
15:40	61.8	61.8	61.8	95	60.3	2	5	68	0.00	29.929 
15:45	61.8	61.8	61.8	94	60.1	2	5	90	0.00	29.924 
15:50	62.1	62.1	62.1	94	60.3	1	4	90	0.00	29.924 
15:55	62.6	62.6	62.6	94	60.8	1	4	90	0.00	29.924 
16:00	62.9	62.9	62.9	94	61.1	1	3	90	0.00	29.927 
16:05	63.2	63.2	63.2	94	61.4	1	3	90	0.00	29.927 
16:10	63.5	63.5	63.5	93	61.4	1	4	90	0.00	29.927 
16:15	63.7	63.7	63.7	93	61.6	1	4	90	0.00	29.922 
16:20	63.7	63.7	63.7	92	61.3	1	3	68	0.00	29.922 
16:25	63.4	63.4	63.4	92	61.0	1	4	68	0.00	29.922 
16:30	63.2	63.2	63.2	92	60.8	1	3	68	0.00	29.914 
16:35	63.2	63.2	63.2	92	60.8	1	5	68	0.00	29.914 
16:40	63.4	63.4	63.4	92	61.0	1	5	90	0.00	29.914 
16:45	63.7	63.7	63.7	92	61.3	1	3	90	0.00	29.912 
16:50	64.0	64.0	64.0	92	61.6	1	4	90	0.00	29.912 
16:55	64.2	64.2	64.2	92	61.8	2	4	90	0.00	29.912 
17:00	64.5	64.5	64.5	92	62.1	1	5	90	0.00	29.911 
17:05	64.5	64.5	64.5	91	61.8	2	6	90	0.00	29.911 
17:10	64.7	64.7	64.7	91	62.0	2	6	112	0.00	29.911 
17:15	65.3	65.3	65.3	91	62.6	1	4	112	0.00	29.903 
17:20	66.0	66.0	66.0	90	63.0	2	6	112	0.00	29.903 
17:25	66.1	66.1	66.1	89	62.8	1	4	112	0.00	29.903 
17:30	66.3	66.3	66.3	89	63.0	1	5	135	0.00	29.904 
17:35	66.3	66.3	66.3	88	62.6	1	5	90	0.00	29.904 
17:40	66.3	66.3	66.3	88	62.6	1	4	90	0.00	29.904 
17:45	66.3	66.3	66.3	88	62.6	1	5	90	0.00	29.898 
17:50	66.3	66.3	66.3	88	62.6	1	4	90	0.00	29.898 
17:55	65.8	65.8	65.8	88	62.1	1	5	112	0.00	29.898 
18:00	65.5	65.5	65.5	88	61.8	1	4	112	0.00	29.907 
18:05	65.2	65.2	65.2	88	61.6	1	4	112	0.00	29.907 
18:10	64.8	64.8	64.8	88	61.2	0	3	112	0.00	29.907 
18:15	64.5	64.5	64.5	88	60.9	1	5	112	0.00	29.905 
18:20	64.3	64.3	64.3	89	61.0	0	3	112	0.00	29.905 
18:25	64.0	64.0	64.0	89	60.7	1	5	112	0.00	29.905 
18:30	64.0	64.0	64.0	89	60.7	2	6	90	0.00	29.907 
18:35	64.0	64.0	64.0	89	60.7	2	6	90	0.00	29.907 
18:40	64.0	64.0	64.0	89	60.7	2	6	90	0.00	29.907 
18:45	63.7	63.7	63.7	89	60.4	1	5	90	0.00	29.906 
18:50	63.4	63.4	63.4	89	60.1	3	5	90	0.00	29.906 
18:55	63.2	63.2	63.2	90	60.2	2	5	90	0.00	29.906 
19:00	63.1	63.1	63.1	90	60.1	2	7	90	0.00	29.915 
19:05	63.1	63.1	63.1	90	60.1	1	4	90	0.00	29.915 
19:10	62.9	62.9	62.9	90	59.9	0	4	112	0.00	29.915 
19:15	62.6	62.6	62.6	90	59.6	0	1	112	0.00	29.922 
19:20	62.4	62.4	62.4	90	59.4	0	2	112	0.00	29.922 
19:25	62.1	62.1	62.1	90	59.1	0	3	112	0.00	29.922 
19:30	61.8	61.8	61.8	90	58.8	0	2	112	0.00	29.922 
19:35	61.6	61.6	61.6	90	58.6	0	2	112	0.00	29.922 
19:40	61.3	61.3	61.3	91	58.6	0	2	112	0.01	29.922 
19:45	60.9	60.9	60.9	91	58.3	0	2	112	0.00	29.925 
19:50	60.5	60.5	60.5	91	57.9	1	5	112	0.00	29.925 
19:55	60.1	60.1	60.1	91	57.5	1	4	90	0.01	29.925 
20:00	59.6	59.6	59.6	91	57.0	3	7	112	0.00	29.926 
20:05	59.5	59.5	59.5	92	57.2	1	4	112	0.00	29.926 
20:10	59.3	59.3	59.3	92	57.0	1	4	112	0.01	29.926 
20:15	59.0	59.0	59.0	92	56.7	1	5	90	0.00	29.930 
20:20	58.9	58.9	58.9	92	56.6	0	3	90	0.00	29.930 
20:25	58.7	58.7	58.7	92	56.4	1	4	90	0.01	29.930 
20:30	58.6	58.6	58.6	92	56.3	1	5	90	0.00	29.939 
20:35	58.4	58.4	58.4	93	56.4	0	3	90	0.01	29.939 
20:40	58.4	58.4	58.4	93	56.4	0	1	90	0.02	29.939 
20:45	58.3	58.3	58.3	93	56.3	0	2	90	0.03	29.948 
20:50	58.1	58.1	58.1	93	56.1	0	3	90	0.03	29.948 
20:55	58.1	58.1	58.1	93	56.1	1	3	90	0.05	29.948 
21:00	58.1	58.1	58.1	93	56.1	0	4	90	0.04	29.950 
21:05	58.0	58.0	58.0	94	56.3	1	4	90	0.02	29.950 
21:10	58.0	58.0	58.0	94	56.3	0	1	90	0.05	29.950 
21:15	57.8	57.8	57.8	94	56.1	1	3	90	0.04	29.944 
21:20	57.6	57.6	57.6	94	55.9	0	3	68	0.02	29.944 
21:25	57.5	57.5	57.5	94	55.8	0	3	292	0.00	29.944 
21:30	57.6	57.6	57.6	94	55.9	0	1	292	0.02	29.970 
21:35	57.8	57.8	57.8	95	56.4	2	7	90	0.13	29.970 
21:40	58.1	58.1	58.1	95	56.7	1	7	68	0.12	29.970 
21:45	58.3	58.3	58.3	94	56.6	0	3	112	0.08	29.963 
21:50	58.3	58.3	58.3	94	56.6	0	0	---	0.01	29.963 
21:55	58.3	58.3	58.3	94	56.6	0	0	---	0.01	29.963 
22:00	58.3	58.3	58.3	95	56.9	0	1	112	0.01	29.967 
22:05	58.3	58.3	58.3	94	56.6	0	2	112	0.02	29.967 
22:10	58.1	58.1	58.1	95	56.7	0	2	112	0.02	29.967 
22:15	58.1	58.1	58.1	95	56.7	1	3	112	0.00	29.967 
22:20	58.1	58.1	58.1	95	56.7	1	5	112	0.00	29.967 
22:25	58.3	58.3	58.3	95	56.9	0	2	112	0.02	29.967 
22:30	58.4	58.4	58.4	95	57.0	1	5	112	0.01	29.962 
22:35	58.4	58.4	58.4	95	57.0	0	3	112	0.01	29.962 
22:40	58.3	58.3	58.3	95	56.9	0	1	112	0.01	29.962 
22:45	58.1	58.1	58.1	95	56.7	0	2	112	0.00	29.961 
22:50	58.0	58.0	58.0	95	56.6	0	1	112	0.01	29.961 
22:55	57.8	57.8	57.8	95	56.4	0	1	112	0.00	29.961 
23:00	57.6	57.6	57.6	95	56.2	0	1	112	0.00	29.961 
23:05	57.5	57.5	57.5	95	56.1	0	1	112	0.00	29.961 
23:10	57.3	57.3	57.3	95	55.9	0	3	112	0.00	29.961 
23:15	57.0	57.0	57.0	95	55.6	0	2	112	0.00	29.961 
23:20	56.9	56.9	56.9	95	55.5	0	2	112	0.00	29.961 
23:25	56.7	56.7	56.7	96	55.6	0	1	112	0.00	29.961 
23:30	56.7	56.7	56.7	96	55.6	0	2	112	0.00	29.955 
23:35	56.7	56.7	56.7	96	55.6	0	1	112	0.00	29.955 
23:40	56.7	56.7	56.7	96	55.6	0	0	---	0.00	29.955 
23:45	56.7	56.7	56.7	96	55.6	0	2	112	0.00	29.959 
23:50	56.7	56.7	56.7	96	55.6	0	1	112	0.00	29.959 
23:55	56.7	56.7	56.7	96	55.6	0	2	112	0.00	29.959 

CoCoRaHS
IN-AL-39
A2 Web Hosting
Creative Commons License
GoDaddy
search engine by freefind advanced

loaded 2018-11-20 08:33:35 • last modified 2010-11-18 10:43:29
Privacy PolicyDisclaimer
• wx.awcolley.com is powered by PmWiki v.2002016 •
• all content (unless otherwise noted) © 2018 A W Colley